createdAt,value
2018-09-06T00:00:27.839Z,101431.21
2018-09-06T00:01:27.943Z,101430.50
2018-09-06T00:02:27.248Z,101429.11
2018-09-06T00:03:28.618Z,101428.33
2018-09-06T00:04:29.277Z,101427.48
2018-09-06T00:05:29.556Z,101426.63
2018-09-06T00:06:29.672Z,101425.75
2018-09-06T00:07:30.353Z,101425.21
2018-09-06T00:08:31.001Z,101424.52
2018-09-06T00:09:31.117Z,101423.68
2018-09-06T00:10:31.763Z,101422.89
2018-09-06T00:11:32.463Z,101422.34
2018-09-06T00:12:32.513Z,101421.22
2018-09-06T00:13:32.588Z,101420.25
2018-09-06T00:14:32.697Z,101419.20
2018-09-06T00:15:32.721Z,101418.70
2018-09-06T00:16:32.856Z,101417.91
2018-09-06T00:17:33.108Z,101416.73
2018-09-06T00:18:33.254Z,101416.03
2018-09-06T00:19:33.614Z,101414.84
2018-09-06T00:20:33.680Z,101414.48
2018-09-06T00:21:34.382Z,101413.75
2018-09-06T00:22:35.027Z,101413.31
2018-09-06T00:23:35.146Z,101412.82
2018-09-06T00:24:35.512Z,101412.39
2018-09-06T00:25:35.640Z,101411.56
2018-09-06T00:26:35.745Z,101411.00
2018-09-06T00:27:36.606Z,101410.39
2018-09-06T00:28:36.659Z,101410.33
2018-09-06T00:29:36.935Z,101410.66
2018-09-06T00:30:37.516Z,101410.09
2018-09-06T00:30:45.930Z,101410.45
2018-09-06T00:31:47.104Z,101410.45
2018-09-06T00:32:47.872Z,101409.90
2018-09-06T00:33:48.089Z,101409.65
2018-09-06T00:34:48.264Z,101409.23
2018-09-06T00:35:48.597Z,101408.81
2018-09-06T00:36:48.889Z,101408.25
2018-09-06T00:37:49.551Z,101407.42
2018-09-06T00:38:49.635Z,101407.30
2018-09-06T00:39:49.424Z,101406.55
2018-09-06T00:40:50.554Z,101406.00
2018-09-06T00:41:50.589Z,101405.54
2018-09-06T00:42:51.291Z,101404.70
2018-09-06T00:43:51.419Z,101404.75
2018-09-06T00:44:51.830Z,101404.72
2018-09-06T00:45:51.987Z,101404.47
2018-09-06T00:46:52.133Z,101403.97
2018-09-06T00:47:52.250Z,101404.09
2018-09-06T00:48:52.511Z,101403.92
2018-09-06T00:49:52.700Z,101403.80
2018-09-06T00:50:52.775Z,101403.28
2018-09-06T00:51:53.450Z,101403.53
2018-09-06T00:52:53.597Z,101403.36
2018-09-06T00:53:54.232Z,101403.61
2018-09-06T00:54:54.460Z,101403.27
2018-09-06T00:55:55.132Z,101403.44
2018-09-06T00:56:55.863Z,101403.95
2018-09-06T00:57:55.925Z,101404.30
2018-09-06T00:58:56.669Z,101404.30
2018-09-06T00:59:57.506Z,101403.45
2018-09-06T01:00:58.145Z,101402.90
2018-09-06T01:01:58.244Z,101403.23
2018-09-06T01:02:58.369Z,101403.23
2018-09-06T01:03:59.013Z,101402.82
2018-09-06T01:04:59.802Z,101402.57
2018-09-06T01:06:00.466Z,101402.63
2018-09-06T01:07:00.696Z,101402.98
2018-09-06T01:08:01.314Z,101402.69
2018-09-06T01:09:02.095Z,101403.12
2018-09-06T01:10:02.331Z,101403.67
2018-09-06T01:11:02.535Z,101404.28
2018-09-06T01:12:03.173Z,101404.55
2018-09-06T01:13:03.564Z,101404.38
2018-09-06T01:14:03.631Z,101404.81
2018-09-06T01:15:02.699Z,101405.11
2018-09-06T01:16:03.843Z,101405.46
2018-09-06T01:17:03.986Z,101405.69
2018-09-06T01:17:12.049Z,101405.11
2018-09-06T01:18:13.180Z,101404.52
2018-09-06T01:19:13.303Z,101404.61
2018-09-06T01:20:13.921Z,101404.31
2018-09-06T01:21:14.006Z,101404.92
2018-09-06T01:22:14.259Z,101404.97
2018-09-06T01:23:14.389Z,101404.47
2018-09-06T01:24:14.657Z,101404.64
2018-09-06T01:25:18.287Z,101404.30
2018-09-06T01:26:14.834Z,101404.05
2018-09-06T01:27:15.997Z,101404.34
2018-09-06T01:28:16.649Z,101404.69
2018-09-06T01:29:17.405Z,101404.53
2018-09-06T01:30:19.051Z,101404.53
2018-09-06T01:31:18.854Z,101404.28
2018-09-06T01:32:19.539Z,101404.41
2018-09-06T01:33:19.687Z,101404.16
2018-09-06T01:34:19.781Z,101404.16
2018-09-06T01:35:19.934Z,101404.34
2018-09-06T01:36:20.694Z,101404.14
2018-09-06T01:37:20.802Z,101404.36
2018-09-06T01:38:21.074Z,101404.33
2018-09-06T01:39:20.202Z,101404.61
2018-09-06T01:40:21.273Z,101404.58
2018-09-06T01:41:22.102Z,101404.64
2018-09-06T01:42:22.160Z,101405.05
2018-09-06T01:43:22.474Z,101404.77
2018-09-06T01:44:23.077Z,101405.17
2018-09-06T01:45:23.152Z,101405.19
2018-09-06T01:46:23.972Z,101405.09
2018-09-06T01:47:24.109Z,101404.78
2018-09-06T01:48:24.785Z,101404.89
2018-09-06T01:49:25.457Z,101404.58
2018-09-06T01:50:25.490Z,101404.44
2018-09-06T01:51:25.636Z,101403.83
2018-09-06T01:52:26.446Z,101403.67
2018-09-06T01:53:27.128Z,101403.39
2018-09-06T01:54:27.359Z,101402.59
2018-09-06T01:55:27.666Z,101402.39
2018-09-06T01:56:28.263Z,101402.06
2018-09-06T01:57:28.402Z,101401.35
2018-09-06T01:58:28.576Z,101400.98
2018-09-06T01:59:29.379Z,101400.03
2018-09-06T02:00:29.939Z,101399.98
2018-09-06T02:01:30.729Z,101399.48
2018-09-06T02:02:30.909Z,101398.85
2018-09-06T02:02:39.222Z,101399.89
2018-09-06T02:03:40.261Z,101398.96
2018-09-06T02:04:40.659Z,101398.55
2018-09-06T02:05:40.713Z,101398.33
2018-09-06T02:06:40.795Z,101397.73
2018-09-06T02:07:40.877Z,101397.62
2018-09-06T02:08:41.023Z,101397.59
2018-09-06T02:09:41.259Z,101398.46
2018-09-06T02:10:41.426Z,101398.85
2018-09-06T02:11:42.321Z,101399.33
2018-09-06T02:12:42.535Z,101399.56
2018-09-06T02:13:42.748Z,101400.64
2018-09-06T02:14:43.291Z,101401.56
2018-09-06T02:15:43.393Z,101402.55
2018-09-06T02:16:43.498Z,101403.25
2018-09-06T02:17:43.577Z,101403.90
2018-09-06T02:18:43.786Z,101404.62
2018-09-06T02:19:43.900Z,101404.91
2018-09-06T02:20:44.625Z,101406.06
2018-09-06T02:21:44.687Z,101406.97
2018-09-06T02:22:45.055Z,101407.48
2018-09-06T02:23:45.199Z,101408.52
2018-09-06T02:24:45.236Z,101408.56
2018-09-06T02:25:45.368Z,101409.08
2018-09-06T02:26:46.003Z,101410.00
2018-09-06T02:27:46.068Z,101410.05
2018-09-06T02:28:46.814Z,101410.37
2018-09-06T02:29:47.069Z,101410.33
2018-09-06T02:30:47.209Z,101409.90
2018-09-06T02:31:47.252Z,101410.36
2018-09-06T02:32:47.826Z,101410.52
2018-09-06T02:33:47.945Z,101410.60
2018-09-06T02:34:48.240Z,101410.89
2018-09-06T02:35:48.389Z,101410.63
2018-09-06T02:36:48.558Z,101409.78
2018-09-06T02:37:48.704Z,101409.27
2018-09-06T02:38:48.942Z,101408.34
2018-09-06T02:39:49.625Z,101408.08
2018-09-06T02:40:50.384Z,101407.98
2018-09-06T02:41:51.110Z,101407.52
2018-09-06T02:42:51.272Z,101406.73
2018-09-06T02:43:51.597Z,101406.57
2018-09-06T02:44:51.945Z,101406.23
2018-09-06T02:45:00.313Z,101400.72
2018-09-06T02:46:01.464Z,101400.33
2018-09-06T02:47:01.982Z,101400.20
2018-09-06T02:48:02.621Z,101399.77
2018-09-06T02:49:02.676Z,101399.17
2018-09-06T02:50:02.829Z,101398.14
2018-09-06T02:51:03.056Z,101397.70
2018-09-06T02:52:03.352Z,101398.01
2018-09-06T02:53:03.504Z,101397.99
2018-09-06T02:54:03.640Z,101397.34
2018-09-06T02:55:02.812Z,101397.03
2018-09-06T02:56:03.967Z,101396.30
2018-09-06T02:57:04.588Z,101395.27
2018-09-06T02:58:05.007Z,101394.83
2018-09-06T02:59:05.101Z,101393.80
2018-09-06T03:00:05.447Z,101392.44
2018-09-06T03:01:05.541Z,101391.41
2018-09-06T03:02:05.594Z,101389.80
2018-09-06T03:03:05.636Z,101388.96
2018-09-06T03:04:05.722Z,101387.89
2018-09-06T03:05:05.847Z,101386.96
2018-09-06T03:06:05.989Z,101386.03
2018-09-06T03:07:06.117Z,101384.63
2018-09-06T03:08:06.219Z,101383.87
2018-09-06T03:09:06.338Z,101382.45
2018-09-06T03:10:06.397Z,101381.19
2018-09-06T03:11:06.451Z,101379.83
2018-09-06T03:12:06.999Z,101378.69
2018-09-06T03:13:07.094Z,101377.29
2018-09-06T03:14:07.217Z,101376.66
2018-09-06T03:15:07.493Z,101375.63
2018-09-06T03:16:08.252Z,101374.95
2018-09-06T03:17:08.283Z,101374.25
2018-09-06T03:18:08.979Z,101373.31
2018-09-06T03:19:09.732Z,101372.39
2018-09-06T03:20:08.900Z,101371.69
2018-09-06T03:21:10.407Z,101370.34
2018-09-06T03:22:10.564Z,101370.48
2018-09-06T03:23:10.674Z,101369.49
2018-09-06T03:24:11.137Z,101369.48
2018-09-06T03:25:11.265Z,101368.98
2018-09-06T03:26:11.306Z,101368.41
2018-09-06T03:27:11.411Z,101367.95
2018-09-06T03:28:11.752Z,101366.89
2018-09-06T03:29:11.811Z,101366.00
2018-09-06T03:29:19.861Z,101366.33
2018-09-06T03:30:20.889Z,101365.40
2018-09-06T03:31:20.899Z,101365.48
2018-09-06T03:32:21.130Z,101364.63
2018-09-06T03:33:21.154Z,101364.02
2018-09-06T03:34:21.446Z,101363.39
2018-09-06T03:35:21.517Z,101362.61
2018-09-06T03:36:21.850Z,101361.41
2018-09-06T03:37:21.920Z,101360.81
2018-09-06T03:38:22.049Z,101360.13
2018-09-06T03:39:22.176Z,101359.62
2018-09-06T03:40:22.234Z,101359.28
2018-09-06T03:41:22.385Z,101359.37
2018-09-06T03:42:22.420Z,101359.41
2018-09-06T03:43:22.512Z,101358.84
2018-09-06T03:44:22.760Z,101358.55
2018-09-06T03:45:22.940Z,101357.53
2018-09-06T03:46:23.026Z,101356.55
2018-09-06T03:47:23.212Z,101355.92
2018-09-06T03:48:23.209Z,101355.50
2018-09-06T03:49:23.314Z,101355.25
2018-09-06T03:50:23.346Z,101354.32
2018-09-06T03:51:22.556Z,101353.64
2018-09-06T03:52:23.701Z,101353.34
2018-09-06T03:53:23.803Z,101353.27
2018-09-06T03:54:23.814Z,101352.80
2018-09-06T03:55:23.859Z,101352.13
2018-09-06T03:56:23.941Z,101352.30
2018-09-06T03:57:24.036Z,101351.78
2018-09-06T03:58:24.120Z,101351.20
2018-09-06T03:59:24.238Z,101351.32
2018-09-06T04:00:24.455Z,101351.50
2018-09-06T04:01:24.598Z,101351.38
2018-09-06T04:02:24.804Z,101351.18
2018-09-06T04:03:24.824Z,101350.94
2018-09-06T04:04:24.982Z,101351.08
2018-09-06T04:05:25.100Z,101351.05
2018-09-06T04:06:25.272Z,101351.52
2018-09-06T04:07:25.275Z,101351.24
2018-09-06T04:08:25.362Z,101351.03
2018-09-06T04:09:25.492Z,101350.71
2018-09-06T04:10:25.616Z,101350.25
2018-09-06T04:11:25.698Z,101349.58
2018-09-06T04:12:25.882Z,101349.02
2018-09-06T04:13:26.224Z,101348.26
2018-09-06T04:13:34.319Z,101343.66
2018-09-06T04:14:35.333Z,101343.23
2018-09-06T04:15:35.404Z,101343.48
2018-09-06T04:16:35.447Z,101342.97
2018-09-06T04:17:35.529Z,101343.31
2018-09-06T04:18:35.794Z,101343.14
2018-09-06T04:19:34.738Z,101343.91
2018-09-06T04:20:35.805Z,101343.83
2018-09-06T04:21:35.994Z,101344.34
2018-09-06T04:22:36.248Z,101344.67
2018-09-06T04:23:36.528Z,101344.59
2018-09-06T04:24:36.650Z,101344.59
2018-09-06T04:25:36.736Z,101344.94
2018-09-06T04:26:35.801Z,101345.70
2018-09-06T04:27:36.886Z,101346.12
2018-09-06T04:28:37.000Z,101346.50
2018-09-06T04:29:37.145Z,101346.92
2018-09-06T04:30:37.148Z,101347.00
2018-09-06T04:31:37.200Z,101346.74
2018-09-06T04:32:37.289Z,101347.72
2018-09-06T04:33:37.411Z,101347.80
2018-09-06T04:34:37.487Z,101348.27
2018-09-06T04:35:37.713Z,101348.64
2018-09-06T04:36:37.887Z,101349.05
2018-09-06T04:37:37.999Z,101349.38
2018-09-06T04:38:38.116Z,101349.31
2018-09-06T04:39:38.363Z,101349.50
2018-09-06T04:40:38.478Z,101349.39
2018-09-06T04:41:38.589Z,101349.16
2018-09-06T04:42:38.944Z,101349.05
2018-09-06T04:43:39.071Z,101348.95
2018-09-06T04:44:39.162Z,101348.63
2018-09-06T04:45:39.290Z,101348.25
2018-09-06T04:46:39.434Z,101348.10
2018-09-06T04:47:39.464Z,101348.12
2018-09-06T04:48:39.786Z,101348.28
2018-09-06T04:49:39.878Z,101348.47
2018-09-06T04:50:39.915Z,101349.05
2018-09-06T04:51:40.085Z,101349.58
2018-09-06T04:52:40.298Z,101350.10
2018-09-06T04:53:40.389Z,101350.38
2018-09-06T04:54:40.622Z,101350.71
2018-09-06T04:55:40.695Z,101351.15
2018-09-06T04:56:40.868Z,101351.23
2018-09-06T04:57:40.983Z,101351.13
2018-09-06T04:58:41.000Z,101351.84
2018-09-06T04:58:49.038Z,101368.22
2018-09-06T04:59:50.900Z,101367.47
2018-09-06T05:00:51.019Z,101367.80
2018-09-06T05:01:51.068Z,101368.31
2018-09-06T05:02:51.109Z,101368.14
2018-09-06T05:03:51.145Z,101368.81
2018-09-06T05:04:51.497Z,101368.77
2018-09-06T05:05:51.732Z,101369.09
2018-09-06T05:06:51.790Z,101369.39
2018-09-06T05:07:52.032Z,101369.72
2018-09-06T05:08:52.083Z,101369.92
2018-09-06T05:09:52.091Z,101370.63
2018-09-06T05:10:52.416Z,101370.96
2018-09-06T05:11:52.829Z,101370.75
2018-09-06T05:12:52.901Z,101370.70
2018-09-06T05:13:53.860Z,101370.34
2018-09-06T05:14:53.930Z,101370.25
2018-09-06T05:15:54.009Z,101370.13
2018-09-06T05:16:54.117Z,101370.11
2018-09-06T05:17:54.209Z,101369.84
2018-09-06T05:18:54.365Z,101369.72
2018-09-06T05:19:54.860Z,101369.46
2018-09-06T05:20:55.076Z,101368.61
2018-09-06T05:21:55.246Z,101368.77
2018-09-06T05:22:55.355Z,101368.02
2018-09-06T05:23:55.514Z,101366.95
2018-09-06T05:24:55.604Z,101366.19
2018-09-06T05:25:55.670Z,101365.59
2018-09-06T05:26:55.794Z,101364.83
2018-09-06T05:27:55.898Z,101363.77
2018-09-06T05:28:55.215Z,101362.32
2018-09-06T05:29:56.275Z,101361.05
2018-09-06T05:30:56.364Z,101359.86
2018-09-06T05:31:56.566Z,101358.23
2018-09-06T05:32:56.648Z,101356.88
2018-09-06T05:33:57.171Z,101355.04
2018-09-06T05:34:57.335Z,101352.70
2018-09-06T05:35:56.394Z,101350.75
2018-09-06T05:36:57.484Z,101348.43
2018-09-06T05:37:57.671Z,101346.61
2018-09-06T05:38:57.851Z,101345.39
2018-09-06T05:39:57.865Z,101343.48
2018-09-06T05:40:58.174Z,101342.67
2018-09-06T05:41:58.237Z,101340.86
2018-09-06T05:42:58.321Z,101339.50
2018-09-06T05:43:58.394Z,101338.87
2018-09-06T05:44:06.441Z,101327.27
2018-09-06T05:45:07.442Z,101326.52
2018-09-06T05:46:07.521Z,101326.02
2018-09-06T05:47:07.616Z,101325.89
2018-09-06T05:48:07.626Z,101325.09
2018-09-06T05:49:07.747Z,101324.72
2018-09-06T05:50:07.796Z,101324.27
2018-09-06T05:51:08.031Z,101324.67
2018-09-06T05:52:08.190Z,101324.22
2018-09-06T05:53:07.337Z,101324.11
2018-09-06T05:54:08.521Z,101324.33
2018-09-06T05:55:08.725Z,101323.49
2018-09-06T05:56:08.801Z,101323.07
2018-09-06T05:57:08.991Z,101322.39
2018-09-06T05:58:09.625Z,101322.20
2018-09-06T05:59:08.832Z,101321.59
2018-09-06T06:00:09.986Z,101321.80
2018-09-06T06:01:10.356Z,101321.23
2018-09-06T06:02:10.498Z,101320.88
2018-09-06T06:03:10.532Z,101320.04
2018-09-06T06:04:11.208Z,101319.67
2018-09-06T06:05:11.299Z,101318.91
2018-09-06T06:06:10.286Z,101318.46
2018-09-06T06:07:12.106Z,101317.84
2018-09-06T06:08:12.628Z,101317.25
2018-09-06T06:09:13.194Z,101316.71
2018-09-06T06:10:14.106Z,101315.83
2018-09-06T06:11:14.284Z,101315.27
2018-09-06T06:12:14.487Z,101314.85
2018-09-06T06:13:14.675Z,101314.54
2018-09-06T06:14:14.904Z,101314.20
2018-09-06T06:15:15.843Z,101314.02
2018-09-06T06:16:15.884Z,101313.75
2018-09-06T06:17:16.883Z,101312.88
2018-09-06T06:18:17.056Z,101312.84
2018-09-06T06:19:17.396Z,101312.20
2018-09-06T06:20:17.724Z,101312.16
2018-09-06T06:21:17.775Z,101311.77
2018-09-06T06:22:17.847Z,101311.84
2018-09-06T06:23:16.977Z,101312.17
2018-09-06T06:24:18.997Z,101312.03
2018-09-06T06:25:19.112Z,101311.59
2018-09-06T06:26:19.173Z,101311.66
2018-09-06T06:27:19.188Z,101311.56
2018-09-06T06:28:19.189Z,101311.64
2018-09-06T06:29:20.207Z,101311.45
2018-09-06T06:30:20.350Z,101311.73
2018-09-06T06:30:28.676Z,101312.35
2018-09-06T06:31:29.785Z,101311.76
2018-09-06T06:32:29.876Z,101311.40
2018-09-06T06:33:29.881Z,101311.21
2018-09-06T06:34:29.902Z,101311.23
2018-09-06T06:35:29.952Z,101311.07
2018-09-06T06:36:30.066Z,101311.09
2018-09-06T06:37:30.186Z,101310.98
2018-09-06T06:38:30.199Z,101311.34
2018-09-06T06:39:30.225Z,101311.47
2018-09-06T06:40:30.584Z,101311.81
2018-09-06T06:41:31.369Z,101311.63
2018-09-06T06:42:31.408Z,101311.30
2018-09-06T06:43:31.430Z,101311.06
2018-09-06T06:44:31.475Z,101311.16
2018-09-06T06:45:31.550Z,101310.77
2018-09-06T06:46:31.664Z,101310.52
2018-09-06T06:47:31.650Z,101310.37
2018-09-06T06:48:32.649Z,101310.88
2018-09-06T06:49:33.636Z,101310.88
2018-09-06T06:50:33.657Z,101311.27
2018-09-06T06:51:33.767Z,101310.83
2018-09-06T06:52:33.784Z,101311.41
2018-09-06T06:53:33.905Z,101310.84
2018-09-06T06:54:34.084Z,101310.30
2018-09-06T06:55:34.140Z,101310.30
2018-09-06T06:56:34.299Z,101310.23
2018-09-06T06:57:34.413Z,101309.55
2018-09-06T06:58:34.473Z,101309.23
2018-09-06T06:59:33.484Z,101308.50
2018-09-06T07:00:34.678Z,101307.87
2018-09-06T07:01:35.038Z,101307.62
2018-09-06T07:02:35.052Z,101306.86
2018-09-06T07:03:35.165Z,101306.58
2018-09-06T07:04:35.213Z,101306.34
2018-09-06T07:05:34.279Z,101306.14
2018-09-06T07:06:35.532Z,101306.30
2018-09-06T07:07:35.766Z,101306.37
2018-09-06T07:08:36.305Z,101306.30
2018-09-06T07:09:36.329Z,101306.20
2018-09-06T07:10:36.377Z,101306.03
2018-09-06T07:11:36.394Z,101306.65
2018-09-06T07:12:36.409Z,101306.77
2018-09-06T07:13:36.526Z,101306.47
2018-09-06T07:14:36.568Z,101306.50
2018-09-06T07:14:44.869Z,101317.94
2018-09-06T07:15:45.889Z,101316.70
2018-09-06T07:16:45.950Z,101316.05
2018-09-06T07:17:46.055Z,101315.61
2018-09-06T07:18:46.152Z,101315.64
2018-09-06T07:19:45.147Z,101315.20
2018-09-06T07:20:46.602Z,101314.92
2018-09-06T07:21:46.631Z,101314.76
2018-09-06T07:22:46.683Z,101314.66
2018-09-06T07:23:46.800Z,101314.53
2018-09-06T07:24:47.004Z,101314.44
2018-09-06T07:25:47.230Z,101314.36
2018-09-06T07:26:47.875Z,101314.09
2018-09-06T07:27:47.927Z,101314.12
2018-09-06T07:28:48.168Z,101313.70
2018-09-06T07:29:48.345Z,101313.97
2018-09-06T07:30:48.482Z,101313.47
2018-09-06T07:31:48.864Z,101313.03
2018-09-06T07:32:49.031Z,101312.83
2018-09-06T07:33:49.999Z,101312.73
2018-09-06T07:34:50.081Z,101312.19
2018-09-06T07:35:50.121Z,101312.11
2018-09-06T07:36:50.214Z,101312.16
2018-09-06T07:37:50.252Z,101311.83
2018-09-06T07:38:50.277Z,101312.16
2018-09-06T07:39:50.279Z,101312.27
2018-09-06T07:40:50.505Z,101312.44
2018-09-06T07:41:50.821Z,101312.16
2018-09-06T07:42:50.991Z,101312.55
2018-09-06T07:43:51.017Z,101312.27
2018-09-06T07:44:51.115Z,101311.55
2018-09-06T07:45:51.449Z,101311.73
2018-09-06T07:46:51.545Z,101311.48
2018-09-06T07:47:50.622Z,101311.75
2018-09-06T07:48:51.657Z,101311.84
2018-09-06T07:49:52.643Z,101311.63
2018-09-06T07:50:52.700Z,101311.80
2018-09-06T07:51:53.006Z,101311.50
2018-09-06T07:52:53.132Z,101310.97
2018-09-06T07:53:53.199Z,101310.89
2018-09-06T07:54:53.390Z,101310.86
2018-09-06T07:55:53.671Z,101310.69
2018-09-06T07:56:53.762Z,101310.30
2018-09-06T07:57:54.004Z,101309.98
2018-09-06T07:58:54.024Z,101309.78
2018-09-06T07:59:54.183Z,101309.67
2018-09-06T08:00:02.501Z,101307.84
2018-09-06T08:01:03.547Z,101307.43
2018-09-06T08:02:03.580Z,101307.69
2018-09-06T08:03:04.079Z,101307.29
2018-09-06T08:04:04.077Z,101306.83
2018-09-06T08:05:04.093Z,101306.54
2018-09-06T08:06:04.098Z,101306.48
2018-09-06T08:07:04.160Z,101306.66
2018-09-06T08:08:04.198Z,101305.75
2018-09-06T08:09:04.233Z,101305.73
2018-09-06T08:10:04.219Z,101305.45
2018-09-06T08:11:04.289Z,101305.38
2018-09-06T08:12:05.341Z,101305.34
2018-09-06T08:13:04.889Z,101305.30
2018-09-06T08:14:06.299Z,101305.27
2018-09-06T08:15:06.608Z,101305.44
2018-09-06T08:16:06.674Z,101305.67
2018-09-06T08:17:06.786Z,101305.86
2018-09-06T08:18:06.825Z,101305.95
2018-09-06T08:19:06.920Z,101306.36
2018-09-06T08:20:08.047Z,101307.08
2018-09-06T08:21:07.185Z,101307.02
2018-09-06T08:22:07.377Z,101308.04
2018-09-06T08:23:08.179Z,101308.42
2018-09-06T08:24:08.329Z,101308.30
2018-09-06T08:25:08.493Z,101308.76
2018-09-06T08:26:08.551Z,101309.10
2018-09-06T08:27:08.599Z,101309.02
2018-09-06T08:28:08.878Z,101309.27
2018-09-06T08:29:09.054Z,101309.84
2018-09-06T08:30:09.067Z,101310.27
2018-09-06T08:31:09.260Z,101310.73
2018-09-06T08:32:08.316Z,101310.42
2018-09-06T08:33:09.408Z,101310.23
2018-09-06T08:34:09.416Z,101310.00
2018-09-06T08:35:09.508Z,101310.44
2018-09-06T08:36:10.527Z,101309.98
2018-09-06T08:37:10.589Z,101309.90
2018-09-06T08:38:10.745Z,101309.22
2018-09-06T08:39:10.759Z,101308.88
2018-09-06T08:40:10.948Z,101308.63
2018-09-06T08:41:11.001Z,101308.60
2018-09-06T08:42:11.132Z,101308.20
2018-09-06T08:43:11.292Z,101308.46
2018-09-06T08:44:11.339Z,101308.37
2018-09-06T08:44:19.412Z,101304.77
2018-09-06T08:45:20.587Z,101304.55
2018-09-06T08:46:19.743Z,101305.09
2018-09-06T08:47:20.803Z,101304.39
2018-09-06T08:48:21.039Z,101304.46
2018-09-06T08:49:21.066Z,101304.33
2018-09-06T08:50:21.086Z,101303.71
2018-09-06T08:51:21.113Z,101304.30
2018-09-06T08:52:21.164Z,101304.55
2018-09-06T08:53:21.215Z,101304.83
2018-09-06T08:54:21.278Z,101304.84
2018-09-06T08:55:21.471Z,101304.59
2018-09-06T08:56:21.566Z,101305.19
2018-09-06T08:57:21.731Z,101304.52
2018-09-06T08:58:21.858Z,101304.27
2018-09-06T08:59:21.898Z,101304.27
2018-09-06T09:00:21.908Z,101304.67
2018-09-06T09:01:22.124Z,101304.23
2018-09-06T09:02:22.274Z,101304.02
2018-09-06T09:03:21.695Z,101304.22
2018-09-06T09:04:21.695Z,101304.05
2018-09-06T09:05:22.921Z,101303.73
2018-09-06T09:06:23.001Z,101302.99
2018-09-06T09:07:23.217Z,101302.21
2018-09-06T09:08:23.702Z,101302.30
2018-09-06T09:09:22.694Z,101301.72
2018-09-06T09:10:23.956Z,101301.69
2018-09-06T09:11:24.128Z,101300.92
2018-09-06T09:12:24.431Z,101300.42
2018-09-06T09:13:23.640Z,101299.72
2018-09-06T09:14:24.514Z,101299.50
2018-09-06T09:15:25.859Z,101298.86
2018-09-06T09:16:26.157Z,101298.69
2018-09-06T09:17:26.277Z,101298.53
2018-09-06T09:18:26.393Z,101298.30
2018-09-06T09:19:25.425Z,101298.03
2018-09-06T09:20:26.523Z,101297.33
2018-09-06T09:21:26.599Z,101297.50
2018-09-06T09:22:26.768Z,101297.14
2018-09-06T09:23:25.608Z,101296.98
2018-09-06T09:24:26.661Z,101297.06
2018-09-06T09:25:26.724Z,101296.89
2018-09-06T09:26:26.915Z,101296.89
2018-09-06T09:27:26.929Z,101296.68
2018-09-06T09:28:26.976Z,101296.50
2018-09-06T09:29:26.043Z,101296.60
2018-09-06T09:30:27.317Z,101296.19
2018-09-06T09:31:26.658Z,101296.56
2018-09-06T09:32:26.603Z,101296.91
2018-09-06T09:33:27.636Z,101297.02
2018-09-06T09:34:27.765Z,101297.41
2018-09-06T09:35:27.988Z,101297.25
2018-09-06T09:35:36.471Z,101295.62
2018-09-06T09:36:37.620Z,101295.58
2018-09-06T09:37:37.685Z,101295.92
2018-09-06T09:38:37.735Z,101295.59
2018-09-06T09:39:37.760Z,101295.55
2018-09-06T09:40:37.830Z,101295.38
2018-09-06T09:41:36.860Z,101295.80
2018-09-06T09:42:38.007Z,101295.28
2018-09-06T09:43:38.024Z,101294.61
2018-09-06T09:44:38.066Z,101294.78
2018-09-06T09:45:38.266Z,101294.47
2018-09-06T09:47:42.850Z,101293.44
2018-09-06T09:48:43.808Z,101293.44
2018-09-06T09:49:43.866Z,101292.97
2018-09-06T09:51:05.987Z,101289.56
2018-09-06T09:52:07.025Z,101289.14
2018-09-06T09:53:07.128Z,101288.81
2018-09-06T09:54:07.180Z,101288.48
2018-09-06T09:55:07.322Z,101288.30
2018-09-06T09:56:07.430Z,101287.58
2018-09-06T09:57:08.050Z,101287.45
2018-09-06T09:58:06.946Z,101286.83
2018-09-06T09:59:08.021Z,101286.50
2018-09-06T10:00:08.177Z,101286.50
2018-09-06T10:01:08.346Z,101285.97
2018-09-06T10:02:08.551Z,101285.38
2018-09-06T10:03:08.566Z,101284.91
2018-09-06T10:04:09.554Z,101284.58
2018-09-06T10:05:09.614Z,101284.11
2018-09-06T10:06:10.348Z,101283.00
2018-09-06T10:07:10.367Z,101282.84
2018-09-06T10:08:10.411Z,101282.16
2018-09-06T10:09:10.452Z,101282.08
2018-09-06T10:10:11.449Z,101281.36
2018-09-06T10:11:11.560Z,101281.25
2018-09-06T10:12:11.838Z,101280.31
2018-09-06T10:13:11.879Z,101280.22
2018-09-06T10:14:12.038Z,101280.41
2018-09-06T10:15:12.200Z,101280.17
2018-09-06T10:16:12.497Z,101279.98
2018-09-06T10:17:12.547Z,101279.80
2018-09-06T10:18:12.748Z,101279.66
2018-09-06T10:19:11.633Z,101279.30
2018-09-06T10:20:12.704Z,101278.53
2018-09-06T10:21:12.767Z,101278.56
2018-09-06T10:22:12.943Z,101278.27
2018-09-06T10:23:13.076Z,101277.61
2018-09-06T10:24:13.221Z,101277.77
2018-09-06T10:25:13.228Z,101277.27
2018-09-06T10:26:13.241Z,101277.43
2018-09-06T10:27:13.246Z,101277.27
2018-09-06T10:28:13.316Z,101277.19
2018-09-06T10:29:13.340Z,101277.24
2018-09-06T10:30:13.447Z,101276.75
2018-09-06T10:31:13.581Z,101276.68
2018-09-06T10:32:13.895Z,101276.27
2018-09-06T10:33:14.114Z,101275.92
2018-09-06T10:34:14.172Z,101275.81
2018-09-06T10:35:14.216Z,101275.47
2018-09-06T10:36:14.619Z,101275.04
2018-09-06T10:36:22.663Z,101278.39
2018-09-06T10:37:23.834Z,101278.05
2018-09-06T10:38:24.059Z,101277.16
2018-09-06T10:39:24.185Z,101276.75
2018-09-06T10:40:23.122Z,101276.11
2018-09-06T10:41:25.518Z,101275.77
2018-09-06T10:42:23.648Z,101275.42
2018-09-06T10:43:24.672Z,101274.77
2018-09-06T10:44:24.803Z,101274.52
2018-09-06T10:45:24.920Z,101274.44
2018-09-06T10:46:25.087Z,101273.97
2018-09-06T10:47:25.414Z,101274.09
2018-09-06T10:48:25.459Z,101273.98
2018-09-06T10:49:25.479Z,101273.83
2018-09-06T10:50:25.556Z,101273.39
2018-09-06T10:51:25.624Z,101273.23
2018-09-06T10:52:25.845Z,101273.58
2018-09-06T10:53:26.111Z,101273.10
2018-09-06T10:54:26.190Z,101272.41
2018-09-06T10:55:26.233Z,101271.63
2018-09-06T10:56:26.347Z,101271.13
2018-09-06T10:57:26.493Z,101270.86
2018-09-06T10:58:26.604Z,101270.46
2018-09-06T10:59:27.025Z,101270.34
2018-09-06T11:00:27.220Z,101269.84
2018-09-06T11:01:27.289Z,101269.86
2018-09-06T11:02:27.399Z,101268.94
2018-09-06T11:03:27.497Z,101269.08
2018-09-06T11:04:27.590Z,101269.34
2018-09-06T11:05:27.781Z,101269.08
2018-09-06T11:06:27.997Z,101269.11
2018-09-06T11:07:28.112Z,101269.28
2018-09-06T11:08:28.178Z,101269.52
2018-09-06T11:09:28.238Z,101269.89
2018-09-06T11:10:28.306Z,101270.50
2018-09-06T11:11:28.437Z,101270.39
2018-09-06T11:12:28.508Z,101270.92
2018-09-06T11:13:28.703Z,101271.25
2018-09-06T11:14:28.803Z,101271.20
2018-09-06T11:15:28.843Z,101271.71
2018-09-06T11:16:28.907Z,101272.05